Time;durP1;ratioP1;P1;durP2;ratioP2;P2;SDS_P1;SDS_P2;PMS_P1;PMS_P2;Temp;Humidity;BMP_temperature;BMP_pressure;BME280_temperature;BME280_humidity;BME280_pressure;Samples;Min_cycle;Max_cycle;Signal;HPM_P1;HPM_P2
2022/10/02 00:02:27;;;;;;;19.20;3.50;;;17.30;99.90;;;;;;5065275;28;20203;-31
2022/10/02 00:05:18;;;;;;;14.50;3.17;;;17.30;99.90;;;;;;5065424;28;20728;-31
2022/10/02 00:07:51;;;;;;;18.90;3.97;;;17.30;99.90;;;;;;5065212;28;20215;-31
2022/10/02 00:10:23;;;;;;;16.07;3.70;;;17.30;99.90;;;;;;5068949;28;20203;-30
2022/10/02 00:12:59;;;;;;;19.70;3.33;;;17.30;99.90;;;;;;5068594;28;20669;-32
2022/10/02 00:15:30;;;;;;;19.20;3.50;;;17.30;99.90;;;;;;5069315;28;20217;-32
2022/10/02 00:18:27;;;;;;;23.17;3.83;;;17.30;99.90;;;;;;5068876;28;20570;-32
2022/10/02 00:21:15;;;;;;;15.57;3.63;;;17.30;99.90;;;;;;5068504;28;20233;-31
2022/10/02 00:23:55;;;;;;;18.13;3.97;;;17.40;99.90;;;;;;5069348;28;20306;-32
2022/10/02 00:26:26;;;;;;;21.27;3.40;;;17.40;99.90;;;;;;5068608;28;20191;-33
2022/10/02 00:29:20;;;;;;;15.90;3.50;;;17.40;99.90;;;;;;5066749;28;20204;-32
2022/10/02 00:32:06;;;;;;;16.87;4.00;;;17.40;99.90;;;;;;5067602;28;20657;-32
2022/10/02 00:34:46;;;;;;;20.43;3.57;;;17.40;99.90;;;;;;5068628;28;20208;-32
2022/10/02 00:37:28;;;;;;;18.77;3.77;;;17.40;99.90;;;;;;5068418;28;20203;-32
2022/10/02 00:39:55;;;;;;;18.80;3.73;;;17.40;99.90;;;;;;5068722;28;20740;-32
2022/10/02 00:42:57;;;;;;;22.20;3.90;;;17.40;99.90;;;;;;5067769;28;20243;-32
2022/10/02 00:45:58;;;;;;;19.63;3.67;;;17.40;99.90;;;;;;5068472;28;20451;-32
2022/10/02 00:48:39;;;;;;;23.23;4.07;;;17.40;99.90;;;;;;5068184;28;20195;-32
2022/10/02 00:51:09;;;;;;;17.27;3.10;;;17.40;99.90;;;;;;5068478;28;20222;-32
2022/10/02 00:53:39;;;;;;;17.17;3.57;;;17.40;99.90;;;;;;5068447;28;20803;-32
2022/10/02 00:56:15;;;;;;;22.83;4.27;;;17.50;99.90;;;;;;5066477;28;20295;-32
2022/10/02 00:58:50;;;;;;;19.87;3.33;;;17.50;99.90;;;;;;5065807;28;20265;-33
2022/10/02 01:01:28;;;;;;;16.83;3.60;;;17.50;99.90;;;;;;5066528;28;20605;-32
2022/10/02 01:03:58;;;;;;;17.27;3.77;;;17.50;99.90;;;;;;5049759;28;20210;-32
2022/10/02 01:06:30;;;;;;;20.17;4.20;;;17.50;99.90;;;;;;5052896;28;20197;-32
2022/10/02 01:09:00;;;;;;;15.13;3.50;;;17.50;99.90;;;;;;5047859;28;20560;-32
2022/10/02 01:11:30;;;;;;;20.97;4.07;;;17.50;99.90;;;;;;5048332;28;20603;-31
2022/10/02 01:13:58;;;;;;;18.67;3.60;;;17.50;99.90;;;;;;5047209;28;20192;-32
2022/10/02 01:16:27;;;;;;;16.13;3.67;;;17.60;99.90;;;;;;5047252;28;20212;-32
2022/10/02 01:18:59;;;;;;;16.60;3.17;;;17.60;99.90;;;;;;5046440;28;20326;-32
2022/10/02 01:21:45;;;;;;;19.63;3.50;;;17.50;99.90;;;;;;5060254;28;20257;-32
2022/10/02 01:24:20;;;;;;;20.23;4.27;;;17.60;99.90;;;;;;5047440;28;20674;-32
2022/10/02 01:26:48;;;;;;;16.60;3.83;;;17.50;99.90;;;;;;5046561;28;20289;-32
2022/10/02 01:29:18;;;;;;;17.23;3.27;;;17.60;99.90;;;;;;5047270;28;20305;-32
2022/10/02 01:31:45;;;;;;;18.53;3.50;;;17.60;99.90;;;;;;5045895;28;20253;-32
2022/10/02 01:34:14;;;;;;;16.37;3.50;;;17.50;99.90;;;;;;5047766;28;20227;-32
2022/10/02 01:36:43;;;;;;;17.03;3.43;;;17.60;99.90;;;;;;5047524;28;20211;-32
2022/10/02 01:39:13;;;;;;;17.53;3.20;;;17.50;99.90;;;;;;5047721;28;20702;-32
2022/10/02 01:41:44;;;;;;;20.43;3.97;;;17.60;99.90;;;;;;5046468;28;20224;-32
2022/10/02 01:44:12;;;;;;;13.03;3.50;;;17.50;99.90;;;;;;5047983;28;20207;-33
2022/10/02 01:47:09;;;;;;;22.93;4.10;;;17.50;99.90;;;;;;5047421;28;20697;-32
2022/10/02 01:49:51;;;;;;;18.63;3.30;;;17.50;99.90;;;;;;5047235;28;20193;-33
2022/10/02 01:52:21;;;;;;;18.60;3.30;;;17.50;99.90;;;;;;5047071;28;20208;-33
2022/10/02 01:55:23;;;;;;;14.87;3.27;;;17.50;99.90;;;;;;5046838;28;20693;-32
2022/10/02 01:58:18;;;;;;;17.20;4.00;;;17.50;99.90;;;;;;5046637;28;20216;-32
2022/10/02 02:00:51;;;;;;;13.37;2.43;;;17.50;99.90;;;;;;5046973;28;20816;-32
2022/10/02 02:03:51;;;;;;;15.63;2.80;;;17.50;99.90;;;;;;5047033;28;20643;-33
2022/10/02 02:06:31;;;;;;;13.40;3.13;;;17.50;99.90;;;;;;5046874;28;20250;-32
2022/10/02 02:09:08;;;;;;;17.47;3.17;;;17.50;99.90;;;;;;5046436;28;20200;-33
2022/10/02 02:11:41;;;;;;;13.33;3.33;;;17.50;99.90;;;;;;5047066;28;20208;-32
2022/10/02 02:14:25;;;;;;;17.20;3.10;;;17.50;99.90;;;;;;5046904;28;20204;-32
2022/10/02 02:17:05;;;;;;;16.23;3.33;;;17.50;99.90;;;;;;5046356;28;20244;-32
2022/10/02 02:19:42;;;;;;;18.33;3.43;;;17.50;99.90;;;;;;5046694;28;20207;-32
2022/10/02 02:22:23;;;;;;;12.90;3.13;;;17.50;99.90;;;;;;5046747;28;20228;-32
2022/10/02 02:25:03;;;;;;;15.57;2.97;;;17.50;99.90;;;;;;5045231;28;20525;-31
2022/10/02 02:27:56;;;;;;;11.13;2.43;;;17.50;99.90;;;;;;5046383;28;20299;-32
2022/10/02 02:30:27;;;;;;;17.97;3.23;;;17.50;99.90;;;;;;5045896;28;20205;-31
2022/10/02 02:33:00;;;;;;;16.60;3.10;;;17.40;99.90;;;;;;5046579;28;20679;-33
2022/10/02 02:35:40;;;;;;;12.30;2.77;;;17.40;99.90;;;;;;5046528;28;20200;-32
2022/10/02 02:38:23;;;;;;;15.30;3.23;;;17.40;99.90;;;;;;5044639;28;20200;-33
2022/10/02 02:40:51;;;;;;;11.20;2.77;;;17.40;99.90;;;;;;5045879;28;20595;-31
2022/10/02 02:43:28;;;;;;;12.93;2.60;;;17.40;99.90;;;;;;5045961;28;20679;-31
2022/10/02 02:46:04;;;;;;;11.23;2.20;;;17.40;99.90;;;;;;5046461;28;20204;-32
2022/10/02 02:48:45;;;;;;;8.73;2.30;;;17.30;99.90;;;;;;5045965;28;20231;-32
2022/10/02 02:51:26;;;;;;;11.97;2.50;;;17.30;99.90;;;;;;5045636;28;20261;-32
2022/10/02 02:54:21;;;;;;;15.57;2.90;;;17.30;99.90;;;;;;5046108;28;20196;-32
2022/10/02 02:56:51;;;;;;;9.67;2.47;;;17.30;99.90;;;;;;5044717;28;20208;-32
2022/10/02 02:59:25;;;;;;;11.07;2.80;;;17.30;99.90;;;;;;5046189;28;20226;-32
2022/10/02 03:01:52;;;;;;;12.57;2.30;;;17.30;99.90;;;;;;5045866;28;20224;-32
2022/10/02 03:04:24;;;;;;;10.67;2.63;;;17.30;99.90;;;;;;5046206;28;20208;-32
2022/10/02 03:06:56;;;;;;;10.03;2.40;;;17.30;99.90;;;;;;5044254;28;20881;-32
2022/10/02 03:09:27;;;;;;;10.80;2.60;;;17.30;99.90;;;;;;5045871;28;20203;-32
2022/10/02 03:12:03;;;;;;;7.63;2.00;;;17.30;99.90;;;;;;5045184;28;20211;-32
2022/10/02 03:14:37;;;;;;;9.40;2.23;;;17.30;99.90;;;;;;5046047;28;20199;-32
2022/10/02 03:17:13;;;;;;;11.17;2.60;;;17.30;99.90;;;;;;5045390;28;20216;-32
2022/10/02 03:19:49;;;;;;;11.60;2.47;;;17.30;99.90;;;;;;5044343;28;20206;-32
2022/10/02 03:22:52;;;;;;;10.17;2.90;;;17.30;99.90;;;;;;5045659;28;20232;-32
2022/10/02 03:25:38;;;;;;;12.13;2.40;;;17.30;99.90;;;;;;5043955;28;20219;-32
2022/10/02 03:28:19;;;;;;;12.43;3.13;;;17.30;99.90;;;;;;5044878;28;20200;-32
2022/10/02 03:31:10;;;;;;;8.83;2.23;;;17.30;99.90;;;;;;5045490;28;20765;-32
2022/10/02 03:33:39;;;;;;;9.33;2.27;;;17.20;99.90;;;;;;5046196;28;20568;-32
2022/10/02 03:36:09;;;;;;;11.40;2.30;;;17.20;99.90;;;;;;5045500;28;20204;-32
2022/10/02 03:38:40;;;;;;;9.50;2.63;;;17.30;99.90;;;;;;5045438;28;20218;-32
2022/10/02 03:41:07;;;;;;;10.70;2.33;;;17.30;99.90;;;;;;5043887;28;20261;-32
2022/10/02 03:43:35;;;;;;;6.73;2.00;;;17.20;99.90;;;;;;5048164;28;20208;-32
2022/10/02 03:46:02;;;;;;;9.80;2.47;;;17.20;99.90;;;;;;5049610;28;20262;-32
2022/10/02 03:48:31;;;;;;;11.37;2.17;;;17.30;99.90;;;;;;5048162;28;20230;-32
2022/10/02 03:50:58;;;;;;;9.07;2.10;;;17.20;99.90;;;;;;5049502;28;20207;-32
2022/10/02 03:53:32;;;;;;;10.73;2.33;;;17.30;99.90;;;;;;5049620;28;20200;-32
2022/10/02 03:56:13;;;;;;;9.10;2.30;;;17.20;99.90;;;;;;5048857;28;20324;-32
2022/10/02 03:58:50;;;;;;;9.23;2.47;;;17.30;99.90;;;;;;5049337;28;20207;-32
2022/10/02 04:01:21;;;;;;;7.57;1.90;;;17.20;99.90;;;;;;5064442;28;20219;-32
2022/10/02 04:04:02;;;;;;;4.30;1.57;;;17.20;99.90;;;;;;5049731;28;20253;-32
2022/10/02 04:06:34;;;;;;;9.03;2.07;;;17.20;99.90;;;;;;5049230;28;20484;-32
2022/10/02 04:09:29;;;;;;;6.33;2.20;;;17.20;99.90;;;;;;5047831;28;20204;-32
2022/10/02 04:12:15;;;;;;;8.93;2.30;;;17.20;99.90;;;;;;5047035;28;20655;-32
2022/10/02 04:15:01;;;;;;;6.43;1.83;;;17.10;99.90;;;;;;5049106;28;20200;-32
2022/10/02 04:17:37;;;;;;;7.73;1.60;;;17.10;99.90;;;;;;5049324;28;20247;-32
2022/10/02 04:20:19;;;;;;;7.70;1.70;;;17.10;99.90;;;;;;5048732;28;20203;-32
2022/10/02 04:22:57;;;;;;;7.13;2.03;;;17.00;99.90;;;;;;5048752;28;20224;-32
2022/10/02 04:25:32;;;;;;;7.27;1.73;;;17.00;99.90;;;;;;5048695;28;20258;-32
2022/10/02 04:28:04;;;;;;;5.07;1.47;;;17.00;99.90;;;;;;5048381;28;20212;-32
2022/10/02 04:30:34;;;;;;;5.97;1.50;;;17.00;99.90;;;;;;5048697;28;20647;-32
2022/10/02 04:33:19;;;;;;;6.20;1.47;;;17.00;99.90;;;;;;5048989;28;20226;-32
2022/10/02 04:35:56;;;;;;;5.57;1.40;;;17.00;99.90;;;;;;5048599;28;20216;-32
2022/10/02 04:38:55;;;;;;;6.87;1.60;;;17.00;99.90;;;;;;5048455;28;20200;-32
2022/10/02 04:41:31;;;;;;;7.67;1.83;;;17.00;99.90;;;;;;5048309;28;20251;-32
2022/10/02 04:44:12;;;;;;;6.50;1.90;;;17.00;99.90;;;;;;5048243;28;20212;-32
2022/10/02 04:47:01;;;;;;;7.30;1.67;;;16.90;99.90;;;;;;5048631;28;20295;-32
2022/10/02 04:49:55;;;;;;;6.47;1.73;;;16.90;99.90;;;;;;5048479;28;20196;-32
2022/10/02 04:52:52;;;;;;;6.47;1.70;;;16.80;99.90;;;;;;5047137;28;20196;-32
2022/10/02 04:55:58;;;;;;;7.37;1.90;;;16.90;99.90;;;;;;5047567;28;20709;-32
2022/10/02 04:58:49;;;;;;;8.17;1.80;;;16.80;99.90;;;;;;5046487;28;20692;-32
2022/10/02 05:01:31;;;;;;;6.47;1.33;;;16.80;99.90;;;;;;5047757;28;20224;-32
2022/10/02 05:04:36;;;;;;;6.37;1.70;;;16.80;99.90;;;;;;5046160;28;20274;-32
2022/10/02 05:07:15;;;;;;;5.07;1.20;;;16.80;99.90;;;;;;5047577;28;20204;-32
2022/10/02 05:10:08;;;;;;;4.67;1.67;;;16.70;99.90;;;;;;5048082;28;20211;-32
2022/10/02 05:12:44;;;;;;;10.03;1.90;;;16.70;99.90;;;;;;5059189;28;20599;-32
2022/10/02 05:15:27;;;;;;;8.23;1.77;;;16.70;99.90;;;;;;5047503;28;20204;-32
2022/10/02 05:18:13;;;;;;;7.37;2.20;;;16.70;99.90;;;;;;5047513;28;20318;-32
2022/10/02 05:20:56;;;;;;;5.50;1.70;;;16.70;99.90;;;;;;5047595;28;20204;-32
2022/10/02 05:23:33;;;;;;;6.87;1.67;;;16.70;99.90;;;;;;5045839;28;20196;-32
2022/10/02 05:26:13;;;;;;;7.17;2.07;;;16.70;99.90;;;;;;5046928;28;20207;-32
2022/10/02 05:29:10;;;;;;;7.50;1.57;;;16.70;99.90;;;;;;5046985;28;20207;-32
2022/10/02 05:31:42;;;;;;;4.93;1.40;;;16.70;99.90;;;;;;5046839;28;20220;-32
2022/10/02 05:34:46;;;;;;;5.60;1.33;;;16.70;99.90;;;;;;5047037;28;20287;-31
2022/10/02 05:37:32;;;;;;;5.97;1.60;;;16.70;99.90;;;;;;5051651;28;20283;-32
2022/10/02 05:40:15;;;;;;;6.83;1.40;;;16.70;99.90;;;;;;5053946;28;20525;-32
2022/10/02 05:43:04;;;;;;;5.37;1.40;;;16.70;99.90;;;;;;5058096;28;20322;-31
2022/10/02 05:45:38;;;;;;;9.40;2.00;;;16.70;99.90;;;;;;5057958;28;20245;-32
2022/10/02 05:48:31;;;;;;;7.47;1.70;;;16.60;99.90;;;;;;5064019;28;20226;-31
2022/10/02 05:51:12;;;;;;;5.40;1.30;;;16.70;99.90;;;;;;5046878;28;20586;-32
2022/10/02 05:53:49;;;;;;;6.03;1.47;;;16.60;99.90;;;;;;5058919;28;20199;-32
2022/10/02 05:56:38;;;;;;;6.23;1.80;;;16.60;99.90;;;;;;5063928;28;20567;-32
2022/10/02 05:59:32;;;;;;;5.23;1.13;;;16.60;99.90;;;;;;5066150;28;20241;-32
2022/10/02 06:02:10;;;;;;;7.57;1.47;;;16.60;99.90;;;;;;5052410;28;20228;-32
2022/10/02 06:04:48;;;;;;;8.83;1.57;;;16.60;99.90;;;;;;5066772;28;20272;-32
2022/10/02 06:07:19;;;;;;;6.47;1.50;;;16.60;99.90;;;;;;5067896;28;20226;-32
2022/10/02 06:10:15;;;;;;;8.87;1.73;;;16.60;99.90;;;;;;5065436;28;20295;-32
2022/10/02 06:12:56;;;;;;;6.80;1.67;;;16.60;99.90;;;;;;5067777;28;20196;-32
2022/10/02 06:15:38;;;;;;;6.80;1.60;;;16.60;99.90;;;;;;5051885;28;20226;-32
2022/10/02 06:18:10;;;;;;;10.20;1.87;;;16.60;99.90;;;;;;5058561;28;21103;-32
2022/10/02 06:20:43;;;;;;;8.03;1.57;;;16.60;99.90;;;;;;5065807;28;20219;-32
2022/10/02 06:23:23;;;;;;;6.27;1.57;;;16.60;99.90;;;;;;5064467;28;20245;-31
2022/10/02 06:25:52;;;;;;;6.43;1.53;;;16.60;99.90;;;;;;5059021;28;20694;-32
2022/10/02 06:28:36;;;;;;;8.10;1.80;;;16.60;99.90;;;;;;5056558;28;20670;-32
2022/10/02 06:31:12;;;;;;;4.63;1.43;;;16.60;99.90;;;;;;5058973;28;20210;-31
2022/10/02 06:33:40;;;;;;;6.27;1.73;;;16.60;99.90;;;;;;5060487;28;20203;-32
2022/10/02 06:36:13;;;;;;;6.03;1.40;;;16.60;99.90;;;;;;5062185;28;20212;-32
2022/10/02 06:38:59;;;;;;;5.03;1.33;;;16.60;99.90;;;;;;5061048;28;20196;-30
2022/10/02 06:42:09;;;;;;;6.37;1.63;;;16.60;99.90;;;;;;5062256;28;20323;-32
2022/10/02 06:44:55;;;;;;;6.77;1.67;;;16.60;99.90;;;;;;5050924;28;20274;-31
2022/10/02 06:47:42;;;;;;;3.47;1.23;;;16.60;99.90;;;;;;5077459;28;20544;-32
2022/10/02 06:50:27;;;;;;;7.23;1.80;;;16.60;99.90;;;;;;5064074;28;20212;-32
2022/10/02 06:53:01;;;;;;;3.47;1.27;;;16.60;99.90;;;;;;5061318;28;20206;-31
2022/10/02 06:55:39;;;;;;;5.77;1.53;;;16.60;99.90;;;;;;5054070;28;20204;-32
2022/10/02 06:58:25;;;;;;;6.50;1.33;;;16.70;99.90;;;;;;5065163;28;20215;-31
2022/10/02 07:01:03;;;;;;;4.40;1.30;;;16.60;99.90;;;;;;5062580;28;20215;-31
2022/10/02 07:03:56;;;;;;;4.73;1.30;;;16.70;99.90;;;;;;5064705;28;20594;-31
2022/10/02 07:06:59;;;;;;;6.70;1.70;;;16.70;99.90;;;;;;5065419;28;20204;-32
2022/10/02 07:09:51;;;;;;;5.57;1.87;;;16.60;99.90;;;;;;5063948;28;20593;-32
2022/10/02 07:12:42;;;;;;;5.00;1.33;;;16.70;99.90;;;;;;5055789;28;20218;-32
2022/10/02 07:15:25;;;;;;;4.70;1.43;;;16.70;99.90;;;;;;5064537;28;20199;-32
2022/10/02 07:18:15;;;;;;;3.07;1.10;;;16.70;99.90;;;;;;5054826;28;20271;-31
2022/10/02 07:21:03;;;;;;;4.77;1.30;;;16.70;99.90;;;;;;5063951;28;20206;-31
2022/10/02 07:23:39;;;;;;;4.30;1.60;;;16.70;99.90;;;;;;5056748;28;20223;-32
2022/10/02 07:26:34;;;;;;;4.50;1.63;;;16.70;99.90;;;;;;5063135;28;20265;-32
2022/10/02 07:29:11;;;;;;;3.33;1.23;;;16.70;99.90;;;;;;5060028;28;20743;-32
2022/10/02 07:32:19;;;;;;;4.90;1.50;;;16.80;99.90;;;;;;5061861;28;20222;-31
2022/10/02 07:34:57;;;;;;;4.03;1.60;;;16.80;99.90;;;;;;5046680;28;20289;-32
2022/10/02 07:37:38;;;;;;;8.00;1.70;;;16.80;99.90;;;;;;5061849;28;20662;-31
2022/10/02 07:40:44;;;;;;;3.23;1.47;;;16.80;99.90;;;;;;5062838;28;20202;-32
2022/10/02 07:43:39;;;;;;;4.00;1.13;;;16.80;99.90;;;;;;5062545;28;20239;-32
2022/10/02 07:46:30;;;;;;;5.63;1.53;;;16.80;99.90;;;;;;5064604;28;20545;-32
2022/10/02 07:49:14;;;;;;;2.73;1.20;;;16.80;99.90;;;;;;5044340;28;20196;-32
2022/10/02 07:51:57;;;;;;;3.63;1.30;;;16.80;99.90;;;;;;5059302;28;20797;-31
2022/10/02 07:54:48;;;;;;;7.37;1.40;;;16.80;99.90;;;;;;5044902;28;20200;-31
2022/10/02 07:57:43;;;;;;;4.97;1.63;;;16.80;99.90;;;;;;5061626;28;20211;-31
2022/10/02 08:00:13;;;;;;;4.57;1.30;;;16.80;99.90;;;;;;5064613;28;20604;-31
2022/10/02 08:02:53;;;;;;;4.93;1.47;;;16.90;99.90;;;;;;5061361;28;20223;-31
2022/10/02 08:05:31;;;;;;;6.23;1.50;;;16.90;99.90;;;;;;5061822;28;20191;-32
2022/10/02 08:08:20;;;;;;;6.27;1.90;;;16.80;99.90;;;;;;5059815;28;20636;-32
2022/10/02 08:10:55;;;;;;;4.53;1.80;;;16.90;99.90;;;;;;5061151;28;20207;-32
2022/10/02 08:13:33;;;;;;;2.77;1.60;;;16.90;99.90;;;;;;5062139;28;20203;-31
2022/10/02 08:16:04;;;;;;;6.13;1.93;;;16.90;99.90;;;;;;5063333;28;20222;-32
2022/10/02 08:18:37;;;;;;;3.47;1.43;;;16.90;99.90;;;;;;5065216;28;20903;-30
2022/10/02 08:21:13;;;;;;;6.43;1.60;;;17.00;99.90;;;;;;5060989;28;20638;-31
2022/10/02 08:23:53;;;;;;;6.10;1.70;;;17.00;99.90;;;;;;5063889;28;20629;-32
2022/10/02 08:26:42;;;;;;;4.33;1.30;;;17.10;99.90;;;;;;5059952;28;20215;-32
2022/10/02 08:29:23;;;;;;;5.83;1.40;;;17.10;99.90;;;;;;5062763;28;20195;-32
2022/10/02 08:31:54;;;;;;;2.93;1.20;;;17.10;99.90;;;;;;5065804;28;20195;-32
2022/10/02 08:34:27;;;;;;;4.33;1.43;;;17.10;99.90;;;;;;5064703;28;20203;-32
2022/10/02 08:37:19;;;;;;;6.67;1.47;;;17.10;99.90;;;;;;5063749;28;20206;-31
2022/10/02 08:39:58;;;;;;;7.27;1.73;;;17.10;99.90;;;;;;5065727;28;20635;-32
2022/10/02 08:43:05;;;;;;;4.97;1.70;;;17.10;99.90;;;;;;5066314;28;20598;-31
2022/10/02 08:46:10;;;;;;;4.53;1.50;;;17.10;99.90;;;;;;5053610;28;20636;-32
2022/10/02 08:49:05;;;;;;;4.33;1.20;;;17.10;99.90;;;;;;5066265;28;20757;-32
2022/10/02 08:52:17;;;;;;;7.03;1.87;;;17.10;99.90;;;;;;5064124;28;20206;-32
2022/10/02 08:55:11;;;;;;;4.23;1.50;;;17.10;99.90;;;;;;5063287;28;20215;-32
2022/10/02 08:58:01;;;;;;;4.43;1.30;;;17.10;99.90;;;;;;5065841;28;20207;-32
2022/10/02 09:00:47;;;;;;;5.67;1.73;;;17.20;99.90;;;;;;5064544;28;20211;-32
2022/10/02 09:03:53;;;;;;;4.77;1.40;;;17.10;99.90;;;;;;5067077;28;20603;-31
2022/10/02 09:07:02;;;;;;;5.23;1.53;;;17.20;99.90;;;;;;5049711;28;20450;-31
2022/10/02 09:10:09;;;;;;;4.30;1.27;;;17.20;99.90;;;;;;5061732;28;20679;-32
2022/10/02 09:13:01;;;;;;;5.97;1.73;;;17.20;99.90;;;;;;5058178;28;20757;-32
2022/10/02 09:16:06;;;;;;;4.57;1.10;;;17.20;99.90;;;;;;5063778;28;20207;-32
2022/10/02 09:19:01;;;;;;;3.70;1.33;;;17.20;99.90;;;;;;5063462;28;20232;-32
2022/10/02 09:21:53;;;;;;;3.95;1.20;;;17.20;99.90;;;;;;5057175;28;20223;-32
2022/10/02 09:24:46;;;;;;;3.67;1.23;;;17.20;99.90;;;;;;5053784;28;20202;-32
2022/10/02 09:27:37;;;;;;;5.17;1.17;;;17.20;99.90;;;;;;5065618;28;20322;-31
2022/10/02 09:30:31;;;;;;;3.53;1.10;;;17.30;99.90;;;;;;5066517;28;20214;-32
2022/10/02 09:33:15;;;;;;;6.13;1.70;;;17.30;99.90;;;;;;5065323;28;20196;-31
2022/10/02 09:36:01;;;;;;;3.03;1.10;;;17.30;99.90;;;;;;5060493;28;20203;-31
2022/10/02 09:38:47;;;;;;;7.37;1.67;;;17.30;99.90;;;;;;5060787;28;20237;-32
2022/10/02 09:41:48;;;;;;;3.93;1.73;;;17.40;99.90;;;;;;5065135;28;20549;-32
2022/10/02 09:44:37;;;;;;;3.93;1.10;;;17.40;99.90;;;;;;5065165;28;20540;-33
2022/10/02 09:47:09;;;;;;;2.17;1.20;;;17.40;99.90;;;;;;5066069;28;20322;-32
2022/10/02 09:50:07;;;;;;;3.80;1.37;;;17.50;99.90;;;;;;5063361;28;20194;-31
2022/10/02 09:52:58;;;;;;;4.63;1.20;;;17.50;99.90;;;;;;5064636;28;20672;-32
2022/10/02 09:55:48;;;;;;;4.53;1.20;;;17.50;99.90;;;;;;5063157;28;20207;-31
2022/10/02 09:58:48;;;;;;;5.13;1.97;;;17.60;99.90;;;;;;5063787;28;20214;-32
2022/10/02 10:01:28;;;;;;;3.33;1.17;;;17.60;99.90;;;;;;5065530;28;20208;-32
2022/10/02 10:03:58;;;;;;;2.60;1.20;;;17.60;99.90;;;;;;5065452;28;20223;-32
2022/10/02 10:06:40;;;;;;;2.27;1.37;;;17.60;99.90;;;;;;5058083;28;20208;-32
2022/10/02 10:09:53;;;;;;;3.40;1.20;;;17.70;99.90;;;;;;5059368;28;20260;-32
2022/10/02 10:12:47;;;;;;;5.03;1.53;;;17.70;99.90;;;;;;5048595;28;20571;-32
2022/10/02 10:15:45;;;;;;;2.73;1.30;;;17.70;99.90;;;;;;5054196;28;20199;-32
2022/10/02 10:18:38;;;;;;;5.23;1.90;;;17.70;99.90;;;;;;5062367;28;20231;-32
2022/10/02 10:21:24;;;;;;;4.13;1.40;;;17.70;99.90;;;;;;5064488;28;20591;-32
2022/10/02 10:24:01;;;;;;;2.87;1.60;;;17.70;99.90;;;;;;5061333;28;20306;-32
2022/10/02 10:26:54;;;;;;;5.03;1.63;;;17.70;99.90;;;;;;5061827;28;20253;-32
2022/10/02 10:30:01;;;;;;;4.23;1.80;;;17.70;99.90;;;;;;5068118;28;20211;-32
2022/10/02 10:32:58;;;;;;;4.20;1.80;;;17.70;99.90;;;;;;5055119;28;20657;-32
2022/10/02 10:36:03;;;;;;;4.80;1.77;;;17.70;99.90;;;;;;5063241;28;20192;-32
2022/10/02 10:38:36;;;;;;;2.77;1.67;;;17.70;99.90;;;;;;5061759;28;20320;-32
2022/10/02 10:41:28;;;;;;;3.23;1.80;;;17.70;99.90;;;;;;5060407;28;20221;-32
2022/10/02 10:44:18;;;;;;;4.40;1.50;;;17.70;99.90;;;;;;5057518;28;20688;-32
2022/10/02 10:47:25;;;;;;;2.70;1.87;;;17.80;99.90;;;;;;5062892;28;20650;-32
2022/10/02 10:50:39;;;;;;;2.93;1.70;;;17.80;99.90;;;;;;5057965;28;20202;-32
2022/10/02 10:53:40;;;;;;;4.50;1.87;;;17.80;99.90;;;;;;5071494;28;20207;-31
2022/10/02 10:56:35;;;;;;;3.27;1.70;;;17.90;99.90;;;;;;5066456;28;20210;-32
2022/10/02 10:59:29;;;;;;;4.23;2.10;;;17.90;99.90;;;;;;5064748;28;20239;-32
2022/10/02 11:02:28;;;;;;;4.20;2.30;;;17.90;99.90;;;;;;5069249;28;20594;-32
2022/10/02 11:05:07;;;;;;;3.17;2.10;;;17.90;99.90;;;;;;5060437;28;20327;-32
2022/10/02 11:08:12;;;;;;;2.07;1.77;;;17.90;99.90;;;;;;5064854;28;20643;-32
2022/10/02 11:11:11;;;;;;;4.17;2.23;;;18.00;99.90;;;;;;5058410;28;20219;-32
2022/10/02 11:13:46;;;;;;;5.20;2.00;;;18.00;99.90;;;;;;5066553;28;20219;-32
2022/10/02 11:16:18;;;;;;;3.03;1.80;;;18.00;99.90;;;;;;5059407;28;20295;-32
2022/10/02 11:19:25;;;;;;;4.77;2.03;;;18.00;99.90;;;;;;5062063;28;20234;-32
2022/10/02 11:22:20;;;;;;;3.70;1.50;;;18.00;99.90;;;;;;5051182;28;20565;-32
2022/10/02 11:25:14;;;;;;;6.00;2.37;;;18.00;99.90;;;;;;5059383;28;20235;-32
2022/10/02 11:28:06;;;;;;;3.23;1.53;;;18.00;99.90;;;;;;5053652;28;20210;-30
2022/10/02 11:30:52;;;;;;;3.73;1.70;;;18.00;99.90;;;;;;5053951;28;20673;-31
2022/10/02 11:33:34;;;;;;;4.47;1.90;;;17.90;99.90;;;;;;5029290;28;20215;-32
2022/10/02 11:36:20;;;;;;;3.80;1.60;;;18.00;99.90;;;;;;5061290;28;20211;-30
2022/10/02 11:38:53;;;;;;;3.80;2.13;;;18.00;99.90;;;;;;5058697;28;21586;-31
2022/10/02 11:41:42;;;;;;;5.87;2.00;;;18.10;99.90;;;;;;5064726;28;20208;-30
2022/10/02 11:44:48;;;;;;;6.33;1.70;;;18.10;99.90;;;;;;5078956;28;22009;-31
2022/10/02 11:47:54;;;;;;;3.33;1.40;;;18.20;99.90;;;;;;5066355;28;20204;-32
2022/10/02 11:50:41;;;;;;;6.33;2.20;;;18.20;99.90;;;;;;5068699;28;20716;-32
2022/10/02 11:53:53;;;;;;;4.90;1.97;;;18.20;99.90;;;;;;5067990;28;20254;-32
2022/10/02 11:56:44;;;;;;;7.83;2.13;;;18.20;99.90;;;;;;5064313;28;20235;-31
2022/10/02 11:59:49;;;;;;;4.67;1.67;;;18.20;99.90;;;;;;5056310;28;20206;-31
2022/10/02 12:02:37;;;;;;;3.33;1.90;;;18.20;99.90;;;;;;5078461;28;20199;-32
2022/10/02 12:05:32;;;;;;;5.30;2.03;;;18.20;99.90;;;;;;5060242;28;20239;-32
2022/10/02 12:08:13;;;;;;;4.80;1.70;;;18.20;99.90;;;;;;5059451;28;20210;-32
2022/10/02 12:10:51;;;;;;;4.50;2.17;;;18.20;99.90;;;;;;5058976;28;20196;-31
2022/10/02 12:13:29;;;;;;;3.47;2.13;;;18.20;99.90;;;;;;5068536;28;20692;-32
2022/10/02 12:16:18;;;;;;;3.57;2.03;;;18.30;99.90;;;;;;5071222;28;20380;-32
2022/10/02 12:19:35;;;;;;;5.10;2.13;;;18.30;99.90;;;;;;5058431;28;20625;-31
2022/10/02 12:28:51;;;;;;;5.30;1.90;;;18.40;99.90;;;;;;5054213;28;20204;-32
2022/10/02 12:31:44;;;;;;;6.40;2.30;;;18.40;99.90;;;;;;5061114;28;20647;-31
2022/10/02 12:34:40;;;;;;;6.60;2.00;;;18.40;99.90;;;;;;5064711;28;20206;-31
2022/10/02 12:38:00;;;;;;;5.63;2.20;;;18.40;99.90;;;;;;5048170;28;20562;-32
2022/10/02 12:40:55;;;;;;;5.47;2.27;;;18.40;99.90;;;;;;5012279;28;20756;-31
2022/10/02 12:44:03;;;;;;;5.70;1.93;;;18.40;99.90;;;;;;5066397;28;20220;-32
2022/10/02 12:46:39;;;;;;;5.60;2.60;;;18.40;99.90;;;;;;5064222;28;20293;-31
2022/10/02 12:49:26;;;;;;;6.83;2.30;;;18.30;99.90;;;;;;5072065;28;20235;-31
2022/10/02 12:52:27;;;;;;;4.97;2.13;;;18.30;99.90;;;;;;5064879;28;20275;-31
2022/10/02 12:55:53;;;;;;;5.83;2.20;;;18.30;99.90;;;;;;5072259;28;20280;-32
2022/10/02 12:58:32;;;;;;;4.50;2.17;;;18.30;99.90;;;;;;5066408;28;20319;-32
2022/10/02 13:01:19;;;;;;;5.43;2.33;;;18.30;99.90;;;;;;5057991;28;20203;-32
2022/10/02 13:03:54;;;;;;;4.13;2.03;;;18.30;99.90;;;;;;5064695;28;20251;-31
2022/10/02 13:06:53;;;;;;;3.47;1.90;;;18.30;99.90;;;;;;5059584;28;20253;-32
2022/10/02 13:09:50;;;;;;;4.80;2.00;;;18.30;99.90;;;;;;5058303;28;20204;-32
2022/10/02 13:12:18;;;;;;;6.57;2.03;;;18.40;99.90;;;;;;5063797;28;20200;-31
2022/10/02 13:15:22;;;;;;;3.97;1.97;;;18.40;99.90;;;;;;5060797;28;20213;-31
2022/10/02 13:18:15;;;;;;;5.63;2.17;;;18.50;99.90;;;;;;5065250;28;20320;-31
2022/10/02 13:21:17;;;;;;;6.23;2.50;;;18.50;99.90;;;;;;5063975;28;20306;-31
2022/10/02 13:24:09;;;;;;;3.97;2.10;;;18.60;99.90;;;;;;5065029;28;20219;-32
2022/10/02 13:26:58;;;;;;;4.40;2.40;;;18.60;99.90;;;;;;5060724;28;20211;-32
2022/10/02 13:29:46;;;;;;;7.10;2.53;;;18.70;99.90;;;;;;5065331;28;20210;-32
2022/10/02 13:32:32;;;;;;;7.13;2.90;;;18.70;99.90;;;;;;5064245;28;20239;-32
2022/10/02 13:35:37;;;;;;;11.35;3.03;;;18.80;99.90;;;;;;5058235;28;20215;-31
2022/10/02 13:38:13;;;;;;;6.63;2.67;;;18.80;99.90;;;;;;5085542;28;20247;-31
2022/10/02 13:40:59;;;;;;;7.97;2.90;;;18.70;99.90;;;;;;5067683;28;20198;-32
2022/10/02 13:44:05;;;;;;;5.77;2.73;;;18.80;99.90;;;;;;5068920;28;20302;-31
2022/10/02 13:46:48;;;;;;;8.17;3.30;;;18.80;99.90;;;;;;5066711;28;20388;-31
2022/10/02 13:49:29;;;;;;;8.73;3.73;;;18.80;99.90;;;;;;5064569;28;20227;-31
2022/10/02 13:52:15;;;;;;;8.93;4.13;;;18.80;99.90;;;;;;5067164;28;20194;-32
2022/10/02 13:54:53;;;;;;;9.67;4.30;;;18.80;99.90;;;;;;5068257;28;20260;-32
2022/10/02 13:57:23;;;;;;;11.70;4.50;;;18.80;99.90;;;;;;5068897;28;20217;-31
2022/10/02 14:00:03;;;;;;;7.67;4.43;;;18.80;99.90;;;;;;5071227;28;20222;-32
2022/10/02 14:02:47;;;;;;;7.37;4.53;;;18.80;99.90;;;;;;5065508;28;20548;-32
2022/10/02 14:05:27;;;;;;;5.90;4.07;;;18.80;99.90;;;;;;5068340;28;20229;-30
2022/10/02 14:08:07;;;;;;;7.67;5.17;;;18.80;99.90;;;;;;5066588;28;20673;-30
2022/10/02 14:11:05;;;;;;;9.50;4.85;;;18.80;99.90;;;;;;5073143;28;20206;-31
2022/10/02 14:13:44;;;;;;;11.20;5.03;;;18.60;99.90;;;;;;5066647;28;20215;-31
2022/10/02 14:16:26;;;;;;;8.73;4.90;;;18.60;99.90;;;;;;5067872;28;20210;-31
2022/10/02 14:19:28;;;;;;;10.40;5.33;;;18.70;99.90;;;;;;5066042;28;20258;-29
2022/10/02 14:22:28;;;;;;;10.68;5.00;;;18.70;99.90;;;;;;5070626;28;20658;-30